Time;durP1;ratioP1;P1;durP2;ratioP2;P2;SDS_P1;SDS_P2;PMS_P1;PMS_P2;Temp;Humidity;BMP_temperature;BMP_pressure;BME280_temperature;BME280_humidity;BME280_pressure;Samples;Min_cycle;Max_cycle;Signal;HPM_P1;HPM_P2
2023/08/11 00:01:24;;;;;;;;;;;;;;;19.30;56.73;99938.34;3138874;28;20046;-65
2023/08/11 00:02:55;;;;;;;;;;;;;;;19.30;56.67;99933.91;3137642;28;20450;-65
2023/08/11 00:04:26;;;;;;;;;;;;;;;19.28;56.70;99930.53;3140144;28;19928;-65
2023/08/11 00:05:58;;;;;;;;;;;;;;;19.29;56.74;99928.75;3144642;28;20320;-65
2023/08/11 00:07:28;;;;;;;;;;;;;;;19.26;56.78;99935.13;3144920;28;20309;-65
2023/08/11 00:09:00;;;;;;;;;;;;;;;19.29;56.83;99929.59;3145437;28;19927;-64
2023/08/11 00:10:31;;;;;;;;;;;;;;;19.30;56.58;99931.28;3144732;28;20361;-65
2023/08/11 00:12:04;;;;;;;;;;;;;;;19.31;56.53;99930.34;3147539;28;20078;-64
2023/08/11 00:13:36;;;;;;;;;;;;;;;19.33;56.58;99928.38;3147807;28;19994;-64
2023/08/11 00:15:07;;;;;;;;;;;;;;;19.33;56.38;99931.03;3147728;28;19928;-64
2023/08/11 00:16:39;;;;;;;;;;;;;;;19.36;56.32;99926.47;3140323;28;19924;-65
2023/08/11 00:18:10;;;;;;;;;;;;;;;19.36;56.37;99932.59;3135682;28;19998;-66
2023/08/11 00:19:42;;;;;;;;;;;;;;;19.38;56.22;99929.84;3147439;28;19925;-66
2023/08/11 00:21:12;;;;;;;;;;;;;;;19.38;56.45;99927.19;3123273;28;20387;-66
2023/08/11 00:22:44;;;;;;;;;;;;;;;19.40;56.22;99935.81;3145388;28;19921;-66
2023/08/11 00:24:14;;;;;;;;;;;;;;;19.38;56.25;99932.47;3153423;28;19927;-66
2023/08/11 00:25:46;;;;;;;;;;;;;;;19.37;56.06;99923.69;3157009;28;19924;-66
2023/08/11 00:27:19;;;;;;;;;;;;;;;19.37;56.17;99925.50;3157108;28;19924;-66
2023/08/11 00:28:51;;;;;;;;;;;;;;;19.33;56.43;99931.03;3157568;28;20254;-66
2023/08/11 00:30:24;;;;;;;;;;;;;;;19.32;56.31;99932.00;3159574;28;20015;-66
2023/08/11 00:31:55;;;;;;;;;;;;;;;19.33;56.27;99932.81;3158893;28;20113;-65
2023/08/11 00:33:26;;;;;;;;;;;;;;;19.33;56.42;99931.03;3159865;28;19931;-64
2023/08/11 00:34:57;;;;;;;;;;;;;;;19.31;56.13;99932.97;3160074;28;20396;-65
2023/08/11 00:36:28;;;;;;;;;;;;;;;19.29;56.53;99932.25;3160231;28;20014;-64
2023/08/11 00:37:59;;;;;;;;;;;;;;;19.31;56.24;99934.75;3159778;28;20401;-64
2023/08/11 00:39:30;;;;;;;;;;;;;;;19.30;56.13;99933.06;3160049;28;19970;-63
2023/08/11 00:41:01;;;;;;;;;;;;;;;19.27;56.42;99931.50;3156175;28;20328;-63
2023/08/11 00:42:34;;;;;;;;;;;;;;;19.24;56.20;99926.47;3154500;28;19925;-63
2023/08/11 00:44:05;;;;;;;;;;;;;;;19.24;56.54;99933.56;3149917;28;20353;-65
2023/08/11 00:45:36;;;;;;;;;;;;;;;19.22;56.41;99933.66;3151218;28;19920;-64
2023/08/11 00:47:08;;;;;;;;;;;;;;;19.21;56.43;99925.88;3150110;28;20015;-65
2023/08/11 00:48:39;;;;;;;;;;;;;;;19.20;56.57;99927.69;3158398;28;19920;-65
2023/08/11 00:50:11;;;;;;;;;;;;;;;19.18;56.46;99926.97;3159596;28;20551;-65
2023/08/11 00:51:42;;;;;;;;;;;;;;;19.18;56.44;99926.97;3159625;28;19923;-64
2023/08/11 00:53:14;;;;;;;;;;;;;;;19.17;56.53;99927.94;3159867;28;19985;-64
2023/08/11 00:54:44;;;;;;;;;;;;;;;19.18;56.41;99926.97;3157258;28;20368;-64
2023/08/11 00:56:16;;;;;;;;;;;;;;;19.19;56.35;99930.44;3154317;28;19930;-65
2023/08/11 00:57:48;;;;;;;;;;;;;;;19.19;56.31;99926.00;3159636;28;19931;-64
2023/08/11 00:59:20;;;;;;;;;;;;;;;19.21;56.25;99936.44;3154673;28;19921;-64
2023/08/11 01:00:51;;;;;;;;;;;;;;;19.19;56.35;99926.00;3150046;28;19920;-64
2023/08/11 01:02:23;;;;;;;;;;;;;;;19.18;56.24;99929.59;3147317;28;19924;-64
2023/08/11 01:03:54;;;;;;;;;;;;;;;19.18;56.30;99932.25;3149872;28;19920;-63
2023/08/11 01:05:27;;;;;;;;;;;;;;;19.20;56.15;99929.50;3159630;28;19924;-64
2023/08/11 01:07:05;;;;;;;;;;;;;;;19.22;56.18;99924.91;3159952;28;19927;-64
2023/08/11 01:08:39;;;;;;;;;;;;;;;19.23;56.13;99934.53;3159564;28;20294;-64
2023/08/11 01:10:16;;;;;;;;;;;;;;;19.25;55.93;99932.59;3154864;28;20019;-64
2023/08/11 01:11:52;;;;;;;;;;;;;;;19.19;56.13;99933.91;3159490;28;19924;-64
2023/08/11 01:13:26;;;;;;;;;;;;;;;19.13;56.13;99929.13;3155892;28;20055;-64
2023/08/11 01:15:03;;;;;;;;;;;;;;;19.07;56.29;99929.59;3159387;28;19993;-64
2023/08/11 01:16:35;;;;;;;;;;;;;;;19.00;56.51;99936.34;3152454;28;19990;-63
2023/08/11 01:18:07;;;;;;;;;;;;;;;18.96;56.65;99940.16;3159461;28;20364;-63
2023/08/11 01:19:38;;;;;;;;;;;;;;;18.94;56.70;99931.53;3159712;28;20432;-64
2023/08/11 01:21:10;;;;;;;;;;;;;;;18.95;56.48;99939.31;3148895;28;20408;-64
2023/08/11 01:22:44;;;;;;;;;;;;;;;18.95;56.50;99941.97;3152463;28;19921;-64
2023/08/11 01:24:17;;;;;;;;;;;;;;;18.96;56.36;99941.03;3143664;28;19929;-65
2023/08/11 01:25:49;;;;;;;;;;;;;;;18.98;56.40;99943.53;3147089;28;19932;-66
2023/08/11 01:27:19;;;;;;;;;;;;;;;18.95;56.40;99949.88;3142865;28;19921;-66
2023/08/11 01:28:53;;;;;;;;;;;;;;;18.91;56.61;99943.16;3142051;28;19977;-66
2023/08/11 01:30:24;;;;;;;;;;;;;;;18.87;56.79;99944.34;3146429;28;19924;-66
2023/08/11 01:31:56;;;;;;;;;;;;;;;18.79;56.76;99944.97;3142846;28;19932;-65
2023/08/11 01:33:28;;;;;;;;;;;;;;;18.77;56.85;99946.03;3146425;28;19924;-65
2023/08/11 01:34:58;;;;;;;;;;;;;;;18.71;56.89;99949.94;3146928;28;19920;-65
2023/08/11 01:36:30;;;;;;;;;;;;;;;18.67;56.88;99948.50;3146342;28;19920;-65
2023/08/11 01:38:00;;;;;;;;;;;;;;;18.65;57.19;99950.41;3146492;28;20007;-66
2023/08/11 01:39:33;;;;;;;;;;;;;;;18.67;57.08;99945.88;3141593;28;20317;-65
2023/08/11 01:41:04;;;;;;;;;;;;;;;18.69;56.88;99946.56;3145001;28;20417;-64
2023/08/11 01:42:36;;;;;;;;;;;;;;;18.71;56.97;99947.31;3135133;28;20011;-64
2023/08/11 01:44:08;;;;;;;;;;;;;;;18.73;56.74;99948.06;3146540;28;19978;-64
2023/08/11 01:45:40;;;;;;;;;;;;;;;18.69;56.93;99951.00;3121739;28;19921;-64
2023/08/11 01:47:11;;;;;;;;;;;;;;;18.64;57.04;99954.84;3137581;28;20007;-65
2023/08/11 01:48:43;;;;;;;;;;;;;;;18.61;57.15;99957.72;3145498;28;19931;-65
2023/08/11 01:50:15;;;;;;;;;;;;;;;18.58;57.36;99951.84;3146389;28;19927;-65
2023/08/11 01:51:46;;;;;;;;;;;;;;;18.55;57.31;99960.84;3146143;28;19920;-65
2023/08/11 01:53:17;;;;;;;;;;;;;;;18.51;57.42;99953.25;3146413;28;20109;-64
2023/08/11 01:54:50;;;;;;;;;;;;;;;18.48;57.59;99959.59;3143958;28;20031;-64
2023/08/11 01:56:20;;;;;;;;;;;;;;;18.42;57.79;99955.63;3142818;28;20389;-64
2023/08/11 01:57:53;;;;;;;;;;;;;;;18.38;58.00;99954.19;3146107;28;19920;-66
2023/08/11 01:59:23;;;;;;;;;;;;;;;18.38;57.88;99959.47;3146040;28;19920;-65
2023/08/11 02:00:55;;;;;;;;;;;;;;;18.39;57.96;99955.03;3144424;28;19921;-66
2023/08/11 02:02:26;;;;;;;;;;;;;;;18.40;57.92;99956.72;3138167;28;19924;-66
2023/08/11 02:03:58;;;;;;;;;;;;;;;18.41;57.77;99958.38;3146471;28;20480;-65
2023/08/11 02:05:29;;;;;;;;;;;;;;;18.45;57.74;99959.00;3146443;28;20015;-66
2023/08/11 02:07:00;;;;;;;;;;;;;;;18.46;57.70;99960.66;3146466;28;19920;-66
2023/08/11 02:08:32;;;;;;;;;;;;;;;18.49;57.51;99965.75;3146121;28;19920;-65
2023/08/11 02:10:04;;;;;;;;;;;;;;;18.49;57.50;99960.47;3138858;28;19987;-65
2023/08/11 02:11:37;;;;;;;;;;;;;;;18.50;57.56;99956.84;3145617;28;19924;-65
2023/08/11 02:13:09;;;;;;;;;;;;;;;18.51;57.62;99955.88;3146380;28;20460;-65
2023/08/11 02:14:40;;;;;;;;;;;;;;;18.52;57.56;99955.78;3146261;28;19920;-65
2023/08/11 02:16:12;;;;;;;;;;;;;;;18.50;57.60;99952.41;3141406;28;19927;-64
2023/08/11 02:17:42;;;;;;;;;;;;;;;18.51;57.61;99953.25;3143998;28;19924;-64
2023/08/11 02:19:14;;;;;;;;;;;;;;;18.49;57.64;99955.19;3146216;28;19930;-64
2023/08/11 02:20:44;;;;;;;;;;;;;;;18.46;57.40;99950.97;3140316;28;19925;-64
2023/08/11 02:22:16;;;;;;;;;;;;;;;18.46;57.63;99952.75;3142254;28;20025;-64
2023/08/11 02:23:46;;;;;;;;;;;;;;;18.44;57.84;99954.69;3147195;28;20445;-64
2023/08/11 02:25:19;;;;;;;;;;;;;;;18.40;57.89;99947.00;3152888;28;19993;-64
2023/08/11 02:26:51;;;;;;;;;;;;;;;18.39;57.95;99949.75;3158319;28;19920;-64
2023/08/11 02:28:22;;;;;;;;;;;;;;;18.40;57.91;99951.44;3158868;28;19920;-64
2023/08/11 02:29:53;;;;;;;;;;;;;;;18.44;57.84;99954.69;3158544;28;20297;-64
2023/08/11 02:31:25;;;;;;;;;;;;;;;18.44;57.76;99955.53;3155175;28;19927;-64
2023/08/11 02:32:56;;;;;;;;;;;;;;;18.45;57.65;99948.44;3158420;28;20328;-64
2023/08/11 02:34:28;;;;;;;;;;;;;;;18.45;57.64;99944.00;3156901;28;19930;-64
2023/08/11 02:35:58;;;;;;;;;;;;;;;18.46;57.69;99950.97;3146689;28;19978;-64
2023/08/11 02:37:30;;;;;;;;;;;;;;;18.44;57.58;99947.63;3156142;28;20512;-64
2023/08/11 02:39:01;;;;;;;;;;;;;;;18.44;57.83;99941.50;3133621;28;19924;-64
2023/08/11 02:40:35;;;;;;;;;;;;;;;18.41;57.91;99953.13;3157268;28;19993;-64
2023/08/11 02:42:06;;;;;;;;;;;;;;;18.42;57.98;99954.78;3158149;28;19936;-63
2023/08/11 02:43:38;;;;;;;;;;;;;;;18.42;57.87;99960.06;3152314;28;19925;-66
2023/08/11 02:45:10;;;;;;;;;;;;;;;18.44;57.65;99963.44;3155065;28;19920;-65
2023/08/11 02:46:41;;;;;;;;;;;;;;;18.41;57.74;99956.59;3151006;28;20451;-65
2023/08/11 02:48:12;;;;;;;;;;;;;;;18.40;57.80;99960.19;3152783;28;20014;-65
2023/08/11 02:49:43;;;;;;;;;;;;;;;18.38;57.70;99962.09;3158262;28;20010;-65
2023/08/11 02:51:15;;;;;;;;;;;;;;;18.38;57.88;99969.16;3158398;28;19931;-65
2023/08/11 02:52:46;;;;;;;;;;;;;;;18.36;57.96;99973.72;3153100;28;19924;-65
2023/08/11 02:54:17;;;;;;;;;;;;;;;18.33;58.02;99966.03;3157931;28;20262;-65
2023/08/11 02:55:50;;;;;;;;;;;;;;;18.31;58.01;99965.28;3158217;28;19920;-65
2023/08/11 02:57:22;;;;;;;;;;;;;;;18.29;58.16;99970.69;3158292;28;20086;-65
2023/08/11 02:58:56;;;;;;;;;;;;;;;18.25;58.33;99971.88;3158600;28;20010;-65
2023/08/11 03:00:28;;;;;;;;;;;;;;;18.25;58.43;99968.38;3158168;28;19975;-63
2023/08/11 03:01:59;;;;;;;;;;;;;;;18.21;58.31;99969.59;3146711;28;19927;-64
2023/08/11 03:03:30;;;;;;;;;;;;;;;18.17;58.58;99979.53;3158720;28;20400;-64
2023/08/11 03:05:03;;;;;;;;;;;;;;;18.15;58.59;99968.25;3158324;28;19920;-63
2023/08/11 03:06:34;;;;;;;;;;;;;;;18.16;58.53;99973.41;3149654;28;19920;-63
2023/08/11 03:08:06;;;;;;;;;;;;;;;18.16;58.53;99972.53;3157864;28;20002;-64
2023/08/11 03:09:36;;;;;;;;;;;;;;;18.14;58.61;99975.31;3158272;28;19931;-66
2023/08/11 03:11:09;;;;;;;;;;;;;;;18.09;58.64;99973.97;3157967;28;19924;-66
2023/08/11 03:12:40;;;;;;;;;;;;;;;18.10;58.81;99975.63;3156173;28;20351;-66
2023/08/11 03:14:12;;;;;;;;;;;;;;;18.11;58.72;99979.97;3152520;28;20047;-66
2023/08/11 03:15:42;;;;;;;;;;;;;;;18.13;58.65;99983.31;3156997;28;20006;-65
2023/08/11 03:17:14;;;;;;;;;;;;;;;18.14;58.67;99982.38;3150661;28;19927;-65
2023/08/11 03:18:45;;;;;;;;;;;;;;;18.13;58.74;99981.53;3157826;28;20388;-65
2023/08/11 03:20:18;;;;;;;;;;;;;;;18.11;58.58;99983.44;3153873;28;19927;-65
2023/08/11 03:21:48;;;;;;;;;;;;;;;18.08;58.70;99978.41;3158003;28;20007;-65
2023/08/11 03:23:20;;;;;;;;;;;;;;;18.05;58.80;99977.78;3157700;28;19924;-67
2023/08/11 03:24:50;;;;;;;;;;;;;;;18.03;59.00;99983.16;3158147;28;19924;-65
2023/08/11 03:26:23;;;;;;;;;;;;;;;18.00;59.15;99980.75;3158072;28;20010;-66
2023/08/11 03:27:54;;;;;;;;;;;;;;;17.98;59.13;99977.38;3157857;28;20010;-65
2023/08/11 03:29:26;;;;;;;;;;;;;;;17.98;59.13;99976.53;3157962;28;19924;-65
2023/08/11 03:30:58;;;;;;;;;;;;;;;17.98;59.03;99976.53;3154619;28;20314;-65
2023/08/11 03:32:29;;;;;;;;;;;;;;;17.99;59.10;99983.50;3155948;28;19920;-65
2023/08/11 03:34:00;;;;;;;;;;;;;;;18.00;59.05;99980.75;3153156;28;19927;-66
2023/08/11 03:35:33;;;;;;;;;;;;;;;18.01;59.37;99986.84;3153907;28;20000;-65
2023/08/11 03:37:03;;;;;;;;;;;;;;;18.02;59.04;99984.13;3149616;28;19927;-65
2023/08/11 03:38:35;;;;;;;;;;;;;;;18.03;58.93;99987.59;3158004;28;20389;-65
2023/08/11 03:40:12;;;;;;;;;;;;;;;18.05;58.91;99978.63;3157198;28;19920;-65
2023/08/11 03:41:46;;;;;;;;;;;;;;;18.10;58.83;99988.81;3157480;28;19927;-65
2023/08/11 03:43:17;;;;;;;;;;;;;;;18.12;58.58;99990.38;3154923;28;19970;-65
2023/08/11 03:44:48;;;;;;;;;;;;;;;18.15;58.69;99998.06;3151538;28;19919;-65
2023/08/11 03:46:19;;;;;;;;;;;;;;;18.18;58.54;99997.84;3149478;28;20055;-66
2023/08/11 03:47:50;;;;;;;;;;;;;;;18.20;58.50;99997.75;3147203;28;20312;-65
2023/08/11 03:49:22;;;;;;;;;;;;;;;18.23;58.17;100005.41;3149378;28;19920;-65
2023/08/11 03:50:52;;;;;;;;;;;;;;;18.26;58.21;100004.34;3157778;28;20325;-65
2023/08/11 03:52:24;;;;;;;;;;;;;;;18.26;58.26;100005.19;3157745;28;19942;-65
2023/08/11 03:53:58;;;;;;;;;;;;;;;18.28;58.33;100005.06;3157699;28;19953;-64
2023/08/11 03:55:28;;;;;;;;;;;;;;;18.30;58.35;100008.44;3157547;28;20372;-64
2023/08/11 03:57:01;;;;;;;;;;;;;;;18.32;58.16;100011.81;3157580;28;19964;-64
2023/08/11 03:58:32;;;;;;;;;;;;;;;18.33;58.13;100011.69;3158012;28;19974;-67
2023/08/11 04:00:05;;;;;;;;;;;;;;;18.32;58.21;100002.09;3157789;28;19920;-66
2023/08/11 04:01:35;;;;;;;;;;;;;;;18.32;58.23;100003.91;3149454;28;19963;-66
2023/08/11 04:03:09;;;;;;;;;;;;;;;18.32;58.29;100007.38;3155688;28;20364;-66
2023/08/11 04:04:39;;;;;;;;;;;;;;;18.33;58.13;100009.03;3157526;28;19923;-66
2023/08/11 04:06:11;;;;;;;;;;;;;;;18.34;58.15;100002.84;3157712;28;19928;-66
2023/08/11 04:07:42;;;;;;;;;;;;;;;18.34;58.36;100009.91;3157624;28;19924;-67
2023/08/11 04:09:14;;;;;;;;;;;;;;;18.34;58.48;100012.56;3152720;28;20309;-66
2023/08/11 04:10:45;;;;;;;;;;;;;;;18.37;58.16;100009.69;3151605;28;20317;-66
2023/08/11 04:12:17;;;;;;;;;;;;;;;18.37;58.27;100010.53;3157316;28;19927;-66
2023/08/11 04:13:49;;;;;;;;;;;;;;;18.38;58.32;100012.19;3151670;28;19923;-67
2023/08/11 04:15:19;;;;;;;;;;;;;;;18.41;58.28;100019.03;3157413;28;20393;-66
2023/08/11 04:16:51;;;;;;;;;;;;;;;18.44;58.32;100018.81;3150708;28;19920;-67
2023/08/11 04:18:21;;;;;;;;;;;;;;;18.47;58.05;100020.38;3157350;28;20313;-67
2023/08/11 04:19:54;;;;;;;;;;;;;;;18.48;58.21;100020.25;3157288;28;19931;-67
2023/08/11 04:21:27;;;;;;;;;;;;;;;18.48;58.07;100017.63;3157227;28;20364;-67
2023/08/11 04:22:58;;;;;;;;;;;;;;;18.49;58.32;100021.94;3157128;28;19920;-67
2023/08/11 04:24:29;;;;;;;;;;;;;;;18.47;58.49;100021.22;3157498;28;19920;-67
2023/08/11 04:26:01;;;;;;;;;;;;;;;18.48;58.35;100027.31;3132732;28;20258;-67
2023/08/11 04:27:33;;;;;;;;;;;;;;;18.47;58.43;100031.75;3149429;28;20041;-66
2023/08/11 04:29:05;;;;;;;;;;;;;;;18.50;58.30;100020.16;3153324;28;19936;-67
2023/08/11 04:30:36;;;;;;;;;;;;;;;18.52;58.24;100020.88;3157588;28;19920;-67
2023/08/11 04:32:07;;;;;;;;;;;;;;;18.54;58.32;100027.69;3151407;28;19935;-67
2023/08/11 04:33:38;;;;;;;;;;;;;;;18.56;58.01;100022.31;3157423;28;20412;-68
2023/08/11 04:35:10;;;;;;;;;;;;;;;18.59;58.32;100030.00;3151751;28;19932;-67
2023/08/11 04:36:40;;;;;;;;;;;;;;;18.63;58.03;100034.09;3157127;28;19977;-64
2023/08/11 04:38:12;;;;;;;;;;;;;;;18.67;57.76;100032.09;3153582;28;20490;-63
2023/08/11 04:39:43;;;;;;;;;;;;;;;18.70;57.79;100027.41;3148025;28;19959;-67
2023/08/11 04:41:15;;;;;;;;;;;;;;;18.72;57.64;100028.13;3157189;28;19920;-74
2023/08/11 04:42:46;;;;;;;;;;;;;;;18.75;57.73;100029.72;3157226;28;19920;-73
2023/08/11 04:44:18;;;;;;;;;;;;;;;18.78;57.75;100029.47;3146531;28;20416;-73
2023/08/11 04:45:49;;;;;;;;;;;;;;;18.80;57.74;100027.56;3154497;28;19981;-73
2023/08/11 04:47:20;;;;;;;;;;;;;;;18.82;57.79;100037.06;3146945;28;20066;-75
2023/08/11 04:48:51;;;;;;;;;;;;;;;18.88;57.63;100035.75;3153933;28;19920;-73
2023/08/11 04:50:23;;;;;;;;;;;;;;;18.93;57.79;100030.13;3155730;28;19924;-73
2023/08/11 04:51:53;;;;;;;;;;;;;;;18.98;57.59;100028.81;3157784;28;19924;-74
2023/08/11 04:53:25;;;;;;;;;;;;;;;19.04;57.43;100025.69;3157499;28;20336;-72
2023/08/11 04:54:58;;;;;;;;;;;;;;;19.09;57.31;100028.00;3154420;28;19924;-74
2023/08/11 04:56:30;;;;;;;;;;;;;;;19.14;57.17;100025.84;3157734;28;20407;-74
2023/08/11 04:58:03;;;;;;;;;;;;;;;19.19;57.28;100028.94;3157664;28;20333;-75
2023/08/11 04:59:35;;;;;;;;;;;;;;;19.24;57.16;100025.97;3153823;28;19920;-76
2023/08/11 05:01:07;;;;;;;;;;;;;;;19.26;57.01;100027.53;3156037;28;19920;-75
2023/08/11 05:02:37;;;;;;;;;;;;;;;19.29;57.00;100029.94;3153060;28;19924;-71
2023/08/11 05:04:12;;;;;;;;;;;;;;;19.32;56.99;100021.78;3152358;28;20450;-71
2023/08/11 05:05:45;;;;;;;;;;;;;;;19.38;56.98;100027.53;3148831;28;20413;-65
2023/08/11 05:07:18;;;;;;;;;;;;;;;19.44;56.80;100019.97;3157639;28;20297;-63
2023/08/11 05:08:58;;;;;;;;;;;;;;;19.51;56.81;100018.50;3159057;28;19920;-63
2023/08/11 05:10:29;;;;;;;;;;;;;;;19.60;56.68;100021.41;3157105;28;19929;-64
2023/08/11 05:12:01;;;;;;;;;;;;;;;19.66;56.42;100021.78;3158022;28;20061;-66
2023/08/11 05:13:34;;;;;;;;;;;;;;;19.74;56.23;100014.09;3134438;28;19925;-72
2023/08/11 05:15:06;;;;;;;;;;;;;;;19.82;55.94;100020.53;3158974;28;20025;-72
2023/08/11 05:16:38;;;;;;;;;;;;;;;19.87;55.96;100026.31;3150518;28;20093;-74
2023/08/11 05:18:10;;;;;;;;;;;;;;;19.92;55.88;100021.50;3151158;28;19924;-72
2023/08/11 05:19:41;;;;;;;;;;;;;;;19.98;55.67;100021.00;3154907;28;20049;-69
2023/08/11 05:21:13;;;;;;;;;;;;;;;20.03;55.50;100020.66;3159088;28;20021;-71
2023/08/11 05:22:44;;;;;;;;;;;;;;;20.10;55.57;100027.09;3159170;28;20324;-70
2023/08/11 05:24:15;;;;;;;;;;;;;;;20.17;55.41;100023.84;3144854;28;19920;-70
2023/08/11 05:25:47;;;;;;;;;;;;;;;20.25;55.18;100019.72;3146104;28;19959;-71
2023/08/11 05:27:18;;;;;;;;;;;;;;;20.31;55.05;100021.88;3140315;28;20349;-73
2023/08/11 05:28:51;;;;;;;;;;;;;;;20.36;54.58;100027.63;3146500;28;19920;-74
2023/08/11 05:30:25;;;;;;;;;;;;;;;20.42;54.39;100029.75;3146647;28;19978;-77
2023/08/11 05:31:56;;;;;;;;;;;;;;;20.50;54.45;100026.47;3138484;28;19966;-76
2023/08/11 05:33:27;;;;;;;;;;;;;;;20.57;53.95;100023.22;3142567;28;19929;-76
2023/08/11 05:34:59;;;;;;;;;;;;;;;20.63;54.00;100028.00;3146136;28;19920;-77
2023/08/11 05:36:29;;;;;;;;;;;;;;;20.69;53.65;100024.00;3146764;28;19986;-76
2023/08/11 05:38:01;;;;;;;;;;;;;;;20.74;53.53;100028.94;3147246;28;19920;-78
2023/08/11 05:39:32;;;;;;;;;;;;;;;20.80;53.30;100033.69;3136035;28;19929;-81
2023/08/11 05:41:04;;;;;;;;;;;;;;;20.86;52.83;100030.53;3138125;28;19928;-75
2023/08/11 05:42:34;;;;;;;;;;;;;;;20.91;52.80;100033.59;3146720;28;20360;-73
2023/08/11 05:44:08;;;;;;;;;;;;;;;20.96;52.65;100027.94;3137205;28;19968;-76
2023/08/11 05:45:40;;;;;;;;;;;;;;;21.01;52.59;100031.88;3121843;28;20353;-71
2023/08/11 05:47:10;;;;;;;;;;;;;;;21.10;52.41;100031.09;3137309;28;19920;-69
2023/08/11 05:48:42;;;;;;;;;;;;;;;21.20;52.30;100033.78;3145509;28;20066;-70
2023/08/11 05:50:14;;;;;;;;;;;;;;;21.31;52.25;100027.56;3146792;28;19964;-70
2023/08/11 05:51:45;;;;;;;;;;;;;;;21.43;51.90;100038.94;3146794;28;19921;-68
2023/08/11 05:53:17;;;;;;;;;;;;;;;21.52;51.67;100035.50;3146608;28;19924;-70
2023/08/11 05:54:48;;;;;;;;;;;;;;;21.61;51.42;100039.16;3137867;28;19924;-69
2023/08/11 05:56:20;;;;;;;;;;;;;;;21.70;51.07;100043.63;3141650;28;19920;-69
2023/08/11 05:57:52;;;;;;;;;;;;;;;21.73;50.93;100046.84;3146536;28;19920;-70
2023/08/11 05:59:24;;;;;;;;;;;;;;;21.81;50.67;100041.72;3146432;28;19932;-68
2023/08/11 06:00:55;;;;;;;;;;;;;;;21.91;50.41;100043.56;3142315;28;20338;-70
2023/08/11 06:02:26;;;;;;;;;;;;;;;21.99;50.39;100038.41;3134962;28;19924;-71
2023/08/11 06:03:58;;;;;;;;;;;;;;;22.21;50.19;100046.16;3144562;28;20353;-71
2023/08/11 06:05:29;;;;;;;;;;;;;;;22.62;49.60;100032.75;3136134;28;19928;-72
2023/08/11 06:07:00;;;;;;;;;;;;;;;23.28;48.33;100043.41;3146334;28;20353;-69
2023/08/11 06:08:31;;;;;;;;;;;;;;;23.85;46.81;100043.31;3143156;28;19939;-68
2023/08/11 06:10:03;;;;;;;;;;;;;;;24.10;46.01;100047.06;3136169;28;19925;-69
2023/08/11 06:11:33;;;;;;;;;;;;;;;24.05;46.01;100044.06;3121601;28;19975;-71
2023/08/11 06:13:05;;;;;;;;;;;;;;;23.88;46.43;100040.38;3144954;28;20019;-70
2023/08/11 06:14:38;;;;;;;;;;;;;;;23.66;46.40;100044.22;3146061;28;19928;-71
2023/08/11 06:16:10;;;;;;;;;;;;;;;23.51;47.10;100041.22;3139003;28;20437;-70
2023/08/11 06:17:42;;;;;;;;;;;;;;;23.42;47.32;100041.25;3143567;28;19921;-68
2023/08/11 06:19:13;;;;;;;;;;;;;;;23.35;47.43;100043.66;3146273;28;20393;-69
2023/08/11 06:20:45;;;;;;;;;;;;;;;23.32;47.27;100050.09;3127234;28;19928;-70
2023/08/11 06:22:16;;;;;;;;;;;;;;;23.31;47.35;100050.28;3134959;28;20003;-69
2023/08/11 06:23:47;;;;;;;;;;;;;;;23.27;47.45;100047.03;3139906;28;19927;-70
2023/08/11 06:25:18;;;;;;;;;;;;;;;23.23;47.43;100053.63;3140372;28;19998;-70
2023/08/11 06:26:51;;;;;;;;;;;;;;;23.25;47.59;100057.00;3142787;28;20011;-69
2023/08/11 06:28:24;;;;;;;;;;;;;;;23.26;47.41;100049.84;3145712;28;20332;-71
2023/08/11 06:29:56;;;;;;;;;;;;;;;23.23;47.36;100050.97;3146398;28;19920;-70
2023/08/11 06:31:27;;;;;;;;;;;;;;;23.18;47.49;100050.56;3138687;28;19995;-73
2023/08/11 06:32:58;;;;;;;;;;;;;;;23.22;47.65;100048.44;3146043;28;19930;-72
2023/08/11 06:34:30;;;;;;;;;;;;;;;23.26;47.50;100048.03;3146090;28;19924;-71
2023/08/11 06:36:00;;;;;;;;;;;;;;;23.28;47.50;100043.41;3146149;28;19925;-74
2023/08/11 06:37:32;;;;;;;;;;;;;;;23.30;47.22;100052.06;3145437;28;20450;-75
2023/08/11 06:39:03;;;;;;;;;;;;;;;23.30;46.92;100046.75;3146134;28;19925;-73
2023/08/11 06:40:34;;;;;;;;;;;;;;;23.31;47.20;100055.59;3146363;28;20058;-72
2023/08/11 06:42:06;;;;;;;;;;;;;;;23.34;46.89;100058.78;3145971;28;19931;-82
2023/08/11 06:43:38;;;;;;;;;;;;;;;23.38;46.86;100060.16;3140278;28;19921;-80
2023/08/11 06:45:12;;;;;;;;;;;;;;;23.45;46.87;100057.75;3142397;28;19924;-82
2023/08/11 06:46:43;;;;;;;;;;;;;;;23.50;46.87;100054.66;3138493;28;19927;-84
2023/08/11 06:48:15;;;;;;;;;;;;;;;23.55;46.71;100066.53;3141145;28;20070;-84
2023/08/11 06:49:47;;;;;;;;;;;;;;;23.54;46.47;100059.53;3146186;28;19978;-77
2023/08/11 06:51:18;;;;;;;;;;;;;;;23.57;46.64;100063.72;3140223;28;20325;-76
2023/08/11 06:52:50;;;;;;;;;;;;;;;23.60;46.36;100064.28;3136023;28;19927;-76
2023/08/11 06:54:20;;;;;;;;;;;;;;;23.61;46.20;100055.31;3138777;28;19931;-75
2023/08/11 06:55:52;;;;;;;;;;;;;;;23.65;46.12;100057.69;3140104;28;19974;-81
2023/08/11 06:57:24;;;;;;;;;;;;;;;23.65;45.53;100055.00;3139786;28;19920;-72
2023/08/11 06:58:55;;;;;;;;;;;;;;;23.66;45.37;100048.69;3134327;28;19924;-76
2023/08/11 07:00:28;;;;;;;;;;;;;;;23.64;45.40;100054.19;3144814;28;19920;-75
2023/08/11 07:01:59;;;;;;;;;;;;;;;23.68;45.71;100052.91;3133452;28;20015;-72
2023/08/11 07:03:33;;;;;;;;;;;;;;;23.72;45.48;100050.81;3144939;28;20447;-74
2023/08/11 07:05:04;;;;;;;;;;;;;;;23.78;45.65;100053.72;3139944;28;19920;-74
2023/08/11 07:06:35;;;;;;;;;;;;;;;23.90;45.23;100053.50;3133392;28;19920;-77
2023/08/11 07:08:06;;;;;;;;;;;;;;;24.01;45.05;100056.78;3137940;28;20366;-80
2023/08/11 07:09:38;;;;;;;;;;;;;;;24.10;44.98;100054.22;3145668;28;19963;-77
2023/08/11 07:11:09;;;;;;;;;;;;;;;24.17;44.81;100061.47;3145116;28;19929;-79
2023/08/11 07:12:41;;;;;;;;;;;;;;;24.28;44.76;100055.06;3144850;28;19955;-78
2023/08/11 07:14:11;;;;;;;;;;;;;;;24.38;44.81;100058.50;3139526;28;20389;-81
2023/08/11 07:15:45;;;;;;;;;;;;;;;24.47;44.24;100062.94;3139406;28;19963;-79
2023/08/11 07:17:15;;;;;;;;;;;;;;;24.47;43.79;100068.28;3131650;28;19924;-78
2023/08/11 07:18:47;;;;;;;;;;;;;;;24.45;43.76;100064.91;3142866;28;19921;-78
2023/08/11 07:20:18;;;;;;;;;;;;;;;24.46;43.79;100063.09;3137435;28;19928;-80
2023/08/11 07:21:50;;;;;;;;;;;;;;;24.46;43.49;100071.06;3145611;28;19924;-76
2023/08/11 07:23:20;;;;;;;;;;;;;;;24.44;43.55;100073.06;3146327;28;19932;-76
2023/08/11 07:24:52;;;;;;;;;;;;;;;24.51;43.36;100063.47;3153088;28;19920;-74
2023/08/11 07:26:29;;;;;;;;;;;;;;;24.60;43.42;100067.88;3145655;28;19920;-74
2023/08/11 07:28:06;;;;;;;;;;;;;;;24.70;43.14;100068.66;3155330;28;20019;-74
2023/08/11 07:29:53;;;;;;;;;;;;;;;24.78;43.40;100057.22;3152865;28;19921;-73
2023/08/11 07:31:30;;;;;;;;;;;;;;;24.93;43.38;100062.81;3153374;28;19927;-75
2023/08/11 07:33:32;;;;;;;;;;;;;;;25.04;43.01;100069.72;3154243;28;19924;-76
2023/08/11 07:35:05;;;;;;;;;;;;;;;25.19;43.19;100071.69;3157753;28;19931;-78
2023/08/11 07:36:37;;;;;;;;;;;;;;;25.30;43.13;100064.44;3158038;28;19980;-79
2023/08/11 07:38:07;;;;;;;;;;;;;;;25.41;43.15;100058.84;3150868;28;19947;-74
2023/08/11 07:39:39;;;;;;;;;;;;;;;25.51;42.39;100070.19;3149047;28;19945;-75
2023/08/11 07:41:10;;;;;;;;;;;;;;;25.57;42.18;100056.22;3156556;28;19949;-77
2023/08/11 07:42:42;;;;;;;;;;;;;;;25.70;42.66;100060.28;3157270;28;20559;-75
2023/08/11 07:44:12;;;;;;;;;;;;;;;25.82;42.30;100064.34;3153397;28;19927;-76
2023/08/11 07:45:44;;;;;;;;;;;;;;;25.94;42.21;100068.41;3155295;28;20257;-72
2023/08/11 07:47:16;;;;;;;;;;;;;;;26.04;41.84;100070.94;3148990;28;20417;-71
2023/08/11 07:48:48;;;;;;;;;;;;;;;26.09;41.63;100069.47;3157124;28;19963;-72
2023/08/11 07:50:20;;;;;;;;;;;;;;;26.19;41.73;100065.81;3157142;28;19967;-71
2023/08/11 07:51:51;;;;;;;;;;;;;;;26.30;41.67;100061.00;3152429;28;19974;-75
2023/08/11 07:53:22;;;;;;;;;;;;;;;26.43;41.13;100062.34;3157940;28;20015;-79
2023/08/11 07:54:53;;;;;;;;;;;;;;;26.58;41.23;100065.22;3149913;28;19920;-79